Hope, Minnesota
Current Conditions -  °F | °C
As of 12:35 AM on Wednesday 26 Nov 2014 (Local Time) from KOWA Reporting Station
Scattered Clouds Scattered Clouds  
Wind Chill: 14°   Ceiling: Unl
Heat Index: 25°   Visibility: 10mi
Dew Point: 18°   Wind: 12mph
Humidity: 74%   Direction: 130°SE
Pressure: 29.98"   Gusts: NA
Location:  43.96°N, 93.28°W
Report Text: KOWA 260635Z AUTO 13010KT 10SM SCT042 M04/M08 A2998 RMK AO2
Loading
Personal Weather Stations






























Interactive Weather Map New forecast layout! Learn more

10-Day Weather Forecast

Advertisements
Track Severe Weather on mobile